Time;durP1;ratioP1;P1;durP2;ratioP2;P2;SDS_P1;SDS_P2;PMS_P1;PMS_P2;Temp;Humidity;BMP_temperature;BMP_pressure;BME280_temperature;BME280_humidity;BME280_pressure;Samples;Min_cycle;Max_cycle;Signal;HPM_P1;HPM_P2
2022/01/22 00:02:05;;;;;;;39.77;17.20;;;8.30;61.20;;;;;;5080831;28;20499;-86
2022/01/22 00:04:33;;;;;;;24.90;12.20;;;8.20;61.40;;;;;;5078959;28;20464;-87
2022/01/22 00:07:02;;;;;;;19.67;10.80;;;7.90;62.00;;;;;;5076392;28;20560;-87
2022/01/22 00:09:36;;;;;;;14.63;9.77;;;8.00;62.10;;;;;;5077379;28;20448;-87
2022/01/22 00:12:06;;;;;;;11.13;7.80;;;8.20;61.50;;;;;;5073416;28;20574;-87
2022/01/22 00:14:34;;;;;;;12.57;8.50;;;8.30;61.40;;;;;;5075564;28;20506;-87
2022/01/22 00:17:02;;;;;;;13.50;7.40;;;8.10;61.80;;;;;;5077513;28;20467;-85
2022/01/22 00:19:29;;;;;;;13.60;9.07;;;8.00;62.00;;;;;;5076257;28;20590;-87
2022/01/22 00:21:58;;;;;;;11.73;7.20;;;8.00;62.00;;;;;;5076524;28;20540;-86
2022/01/22 00:24:25;;;;;;;14.37;8.43;;;8.30;61.80;;;;;;5076342;28;20464;-87
2022/01/22 00:26:54;;;;;;;10.83;7.17;;;8.30;61.30;;;;;;5071958;28;21118;-86
2022/01/22 00:29:21;;;;;;;9.87;7.17;;;8.30;61.20;;;;;;5056345;28;20592;-88
2022/01/22 00:31:48;;;;;;;9.93;6.23;;;8.20;61.20;;;;;;5075514;28;20463;-86
2022/01/22 00:34:15;;;;;;;11.90;6.80;;;8.10;61.60;;;;;;5074376;28;20469;-87
2022/01/22 00:36:42;;;;;;;15.77;9.37;;;8.00;62.10;;;;;;5072573;28;20985;-85
2022/01/22 00:39:09;;;;;;;11.20;6.87;;;8.20;62.30;;;;;;5074512;28;20941;-87
2022/01/22 00:41:36;;;;;;;10.70;7.47;;;8.20;61.70;;;;;;5071366;28;20976;-87
2022/01/22 00:44:05;;;;;;;11.00;6.50;;;8.20;61.50;;;;;;5072549;28;21119;-85
2022/01/22 00:46:32;;;;;;;11.00;6.40;;;8.20;61.60;;;;;;5054500;28;21166;-86
2022/01/22 00:48:59;;;;;;;15.03;6.43;;;8.10;61.80;;;;;;5071698;28;20926;-86
2022/01/22 00:51:27;;;;;;;8.43;5.70;;;8.10;62.10;;;;;;5055267;28;20457;-87
2022/01/22 00:53:54;;;;;;;14.97;6.90;;;8.30;61.70;;;;;;5073732;28;20464;-87
2022/01/22 00:56:21;;;;;;;10.13;8.00;;;8.30;61.30;;;;;;5052263;28;20543;-87
2022/01/22 00:58:49;;;;;;;9.27;5.87;;;8.10;61.70;;;;;;5076565;28;20461;-86
2022/01/22 01:01:18;;;;;;;12.67;7.20;;;8.10;61.60;;;;;;5042082;28;20456;-87
2022/01/22 01:03:45;;;;;;;14.93;7.27;;;8.10;61.80;;;;;;5072052;28;20533;-87
2022/01/22 01:06:12;;;;;;;13.33;7.60;;;8.00;62.00;;;;;;5045226;28;20482;-87
2022/01/22 01:08:39;;;;;;;16.03;7.97;;;8.10;62.10;;;;;;5047229;28;20465;-86
2022/01/22 01:11:07;;;;;;;16.87;7.27;;;8.00;62.30;;;;;;5036820;28;21149;-87
2022/01/22 01:13:41;;;;;;;14.73;7.40;;;7.90;62.60;;;;;;5053761;28;20480;-87
2022/01/22 01:16:18;;;;;;;12.73;6.87;;;7.80;62.90;;;;;;5049442;28;21335;-87
2022/01/22 01:32:42;;;;;;;9.67;6.00;;;8.20;62.30;;;;;;5054237;28;20478;-87
2022/01/22 01:35:10;;;;;;;11.87;6.67;;;8.30;62.00;;;;;;5052491;28;20458;-87
2022/01/22 01:37:37;;;;;;;10.83;6.30;;;8.30;61.70;;;;;;5055919;28;20457;-86
2022/01/22 01:40:07;;;;;;;12.00;6.50;;;8.40;61.70;;;;;;5053904;28;20464;-87
2022/01/22 01:42:44;;;;;;;8.97;6.33;;;8.40;61.40;;;;;;5061112;28;20508;-87
2022/01/22 01:45:11;;;;;;;10.27;7.37;;;8.20;61.70;;;;;;5053614;28;20543;-87
2022/01/22 01:47:49;;;;;;;12.67;6.23;;;8.10;62.40;;;;;;5053402;28;20555;-87
2022/01/22 01:50:18;;;;;;;11.03;7.43;;;8.00;62.80;;;;;;5052517;28;20684;-86
2022/01/22 01:52:48;;;;;;;9.90;7.10;;;8.10;62.60;;;;;;5064402;28;21293;-87
2022/01/22 01:55:22;;;;;;;12.23;7.80;;;8.20;62.30;;;;;;5047095;28;20465;-87
2022/01/22 01:57:49;;;;;;;13.73;7.10;;;8.00;62.70;;;;;;5063029;28;20488;-87
2022/01/22 02:00:23;;;;;;;14.43;7.93;;;8.10;62.80;;;;;;5067995;28;20448;-85
2022/01/22 02:02:55;;;;;;;10.30;6.40;;;8.10;62.40;;;;;;5054840;28;20484;-87
2022/01/22 02:05:26;;;;;;;10.83;7.30;;;8.00;62.50;;;;;;5054210;28;20510;-87
2022/01/22 02:07:59;;;;;;;10.30;6.83;;;7.70;63.80;;;;;;5053315;28;20470;-87
2022/01/22 02:10:42;;;;;;;11.53;7.67;;;7.90;63.80;;;;;;5061019;28;20509;-87
2022/01/22 02:24:18;;;;;;;11.20;6.47;;;8.10;62.10;;;;;;5059784;28;20471;-87
2022/01/22 02:26:48;;;;;;;18.63;7.70;;;7.90;62.70;;;;;;5069061;28;20569;-87
2022/01/22 02:29:17;;;;;;;16.40;7.73;;;8.10;62.70;;;;;;5080920;28;20459;-87
2022/01/22 02:32:22;;;;;;;12.53;5.40;;;7.80;63.50;;;;;;5062960;28;20471;-87
2022/01/22 02:34:52;;;;;;;10.53;6.00;;;7.70;63.10;;;;;;5079746;28;20617;-88
2022/01/22 02:37:23;;;;;;;16.53;7.30;;;7.60;63.70;;;;;;5065110;28;20479;-87
2022/01/22 02:40:00;;;;;;;9.03;6.50;;;7.60;63.70;;;;;;5079511;28;20461;-88
2022/01/22 02:42:31;;;;;;;13.90;5.23;;;7.80;62.90;;;;;;5068208;28;21145;-87
2022/01/22 02:44:58;;;;;;;12.07;5.70;;;7.70;63.20;;;;;;5076693;28;20799;-88
2022/01/22 02:47:25;;;;;;;10.53;6.27;;;7.60;63.10;;;;;;5059900;28;21187;-88
2022/01/22 02:49:52;;;;;;;7.27;4.93;;;7.70;63.20;;;;;;5058019;28;20448;-88
2022/01/22 02:52:20;;;;;;;9.60;5.60;;;7.60;63.10;;;;;;5061112;28;20490;-88
2022/01/22 02:54:49;;;;;;;6.60;4.87;;;7.60;63.20;;;;;;5059738;28;20814;-87
2022/01/22 02:57:17;;;;;;;10.77;5.50;;;7.50;62.80;;;;;;5076160;28;20488;-87
2022/01/22 02:59:49;;;;;;;7.47;4.93;;;7.60;62.70;;;;;;5070869;28;20458;-87
2022/01/22 03:02:16;;;;;;;7.00;4.90;;;7.60;62.40;;;;;;5079596;28;20476;-87
2022/01/22 03:04:46;;;;;;;6.70;4.97;;;7.60;62.70;;;;;;5071064;28;20458;-87
2022/01/22 03:07:13;;;;;;;6.90;4.60;;;7.70;62.30;;;;;;5061851;28;20472;-87
2022/01/22 03:09:45;;;;;;;10.23;4.63;;;7.70;62.20;;;;;;5065175;28;20463;-87
2022/01/22 03:12:44;;;;;;;8.07;4.50;;;7.80;61.90;;;;;;5065222;28;20569;-87
2022/01/22 03:18:09;;;;;;;7.50;5.37;;;7.80;61.80;;;;;;5063061;28;20447;-87
2022/01/22 03:20:48;;;;;;;7.90;4.13;;;7.90;61.40;;;;;;5076904;28;21457;-85
2022/01/22 03:28:54;;;;;;;7.53;4.20;;;7.90;61.50;;;;;;5060045;28;20943;-87
2022/01/22 03:31:22;;;;;;;7.30;3.50;;;8.20;60.70;;;;;;5077236;28;20459;-87
2022/01/22 03:33:49;;;;;;;8.43;5.23;;;8.20;60.40;;;;;;5062901;28;20484;-88
2022/01/22 03:36:18;;;;;;;6.63;4.50;;;8.30;60.00;;;;;;5066940;28;20448;-85
2022/01/22 03:38:45;;;;;;;6.50;4.00;;;8.50;59.40;;;;;;5059271;28;20459;-87
2022/01/22 03:41:14;;;;;;;5.10;4.20;;;8.50;59.30;;;;;;5074314;28;20509;-87
2022/01/22 03:43:44;;;;;;;7.40;4.30;;;8.50;59.10;;;;;;5066566;28;20478;-88
2022/01/22 03:46:12;;;;;;;5.43;4.20;;;8.60;58.90;;;;;;5060161;28;20487;-87
2022/01/22 03:48:40;;;;;;;7.30;3.87;;;8.70;58.60;;;;;;5057888;28;21015;-87
2022/01/22 03:51:07;;;;;;;8.50;3.77;;;8.80;58.50;;;;;;5056910;28;20468;-87
2022/01/22 03:53:34;;;;;;;4.63;4.20;;;8.70;58.20;;;;;;5078139;28;20482;-88
2022/01/22 03:56:04;;;;;;;7.40;4.67;;;8.50;58.30;;;;;;5066343;28;20459;-87
2022/01/22 03:58:35;;;;;;;5.33;4.47;;;8.60;58.30;;;;;;5079115;28;20512;-87
2022/01/22 04:04:16;;;;;;;9.40;4.90;;;8.80;57.70;;;;;;5060320;28;20834;-88
2022/01/22 04:07:17;;;;;;;6.47;3.70;;;8.60;57.70;;;;;;5058372;28;20477;-87
2022/01/22 04:09:45;;;;;;;7.20;3.47;;;8.70;57.90;;;;;;5060588;28;20456;-87
2022/01/22 04:12:14;;;;;;;7.83;3.87;;;8.90;57.70;;;;;;5075817;28;20551;-87
2022/01/22 04:14:48;;;;;;;5.33;4.13;;;9.00;57.30;;;;;;5072988;28;21005;-87
2022/01/22 04:17:26;;;;;;;7.17;4.70;;;9.10;57.10;;;;;;5075897;28;20964;-87
2022/01/22 04:25:41;;;;;;;5.87;3.70;;;9.00;56.60;;;;;;5004853;28;20446;-88
2022/01/22 04:28:08;;;;;;;4.90;3.90;;;8.80;57.20;;;;;;5035912;28;20480;-87
2022/01/22 04:30:37;;;;;;;5.47;3.87;;;8.80;57.20;;;;;;5073822;28;20448;-88
2022/01/22 04:33:05;;;;;;;4.07;3.67;;;8.60;57.50;;;;;;5074732;28;20581;-88
2022/01/22 04:35:33;;;;;;;4.70;4.30;;;8.60;57.80;;;;;;5070026;28;20547;-87
2022/01/22 04:38:00;;;;;;;7.77;4.20;;;8.70;57.50;;;;;;5053983;28;20539;-87
2022/01/22 04:40:27;;;;;;;8.43;3.37;;;8.70;57.60;;;;;;5075986;28;20460;-88
2022/01/22 04:42:55;;;;;;;7.63;4.43;;;8.70;57.70;;;;;;5065118;28;20480;-88
2022/01/22 04:45:29;;;;;;;5.97;3.80;;;8.70;57.40;;;;;;5057641;28;20484;-87
2022/01/22 04:48:13;;;;;;;5.70;3.90;;;8.80;57.50;;;;;;5077097;28;20847;-87
2022/01/22 04:56:10;;;;;;;7.17;3.70;;;8.70;58.00;;;;;;5065200;28;20451;-88
2022/01/22 04:58:38;;;;;;;4.47;3.17;;;8.80;57.70;;;;;;5056816;28;20447;-87
2022/01/22 05:01:05;;;;;;;7.50;3.97;;;8.70;57.50;;;;;;5074372;28;20460;-88
2022/01/22 05:04:00;;;;;;;7.20;3.87;;;8.90;57.50;;;;;;5055000;28;20484;-87
2022/01/22 05:06:49;;;;;;;6.00;3.53;;;8.80;57.40;;;;;;5053794;28;21023;-88
2022/01/22 05:09:40;;;;;;;5.27;3.80;;;8.80;57.60;;;;;;5057605;28;20471;-87
2022/01/22 05:12:10;;;;;;;4.10;3.70;;;8.50;58.00;;;;;;5060275;28;20460;-88
2022/01/22 05:14:39;;;;;;;4.80;3.40;;;8.70;58.10;;;;;;5055972;28;20448;-88
2022/01/22 05:17:08;;;;;;;7.23;4.03;;;8.60;57.90;;;;;;5061817;28;20461;-87
2022/01/22 05:19:46;;;;;;;5.73;3.80;;;8.60;58.20;;;;;;5062118;28;20547;-88
2022/01/22 05:22:24;;;;;;;9.30;4.07;;;8.50;57.80;;;;;;5072626;28;20486;-88
2022/01/22 05:24:56;;;;;;;7.43;3.50;;;8.30;58.70;;;;;;5056861;28;20464;-86
2022/01/22 05:27:47;;;;;;;9.63;4.17;;;8.30;58.90;;;;;;5061238;28;20468;-87
2022/01/22 05:36:54;;;;;;;6.50;4.23;;;8.50;58.30;;;;;;5048730;28;20472;-88
2022/01/22 05:39:12;;;;;;;8.93;4.10;;;8.50;58.00;;;;;;5058331;28;20929;-88
2022/01/22 05:41:40;;;;;;;3.73;3.40;;;8.40;58.30;;;;;;5058534;28;21109;-88
2022/01/22 05:44:08;;;;;;;8.50;3.97;;;8.30;58.70;;;;;;5062495;28;20559;-87
2022/01/22 05:46:35;;;;;;;8.23;3.33;;;8.30;58.80;;;;;;5075532;28;20459;-87
2022/01/22 05:49:04;;;;;;;6.00;3.90;;;8.20;58.80;;;;;;5056632;28;20452;-88
2022/01/22 05:51:33;;;;;;;7.60;3.87;;;7.90;59.50;;;;;;5071615;28;20452;-88
2022/01/22 05:54:44;;;;;;;7.00;3.97;;;7.80;60.00;;;;;;5058648;28;20494;-88
2022/01/22 05:59:56;;;;;;;4.90;3.50;;;7.90;60.00;;;;;;5065443;28;20444;-88
2022/01/22 06:02:23;;;;;;;4.57;3.97;;;8.00;59.80;;;;;;5050784;28;20514;-88
2022/01/22 06:04:55;;;;;;;8.83;5.70;;;8.00;59.90;;;;;;5057119;28;20944;-87
2022/01/22 06:07:24;;;;;;;6.13;4.20;;;8.30;59.40;;;;;;5056489;28;20503;-88
2022/01/22 06:10:05;;;;;;;4.73;3.87;;;8.50;59.00;;;;;;5057418;28;20949;-88
2022/01/22 06:12:43;;;;;;;9.63;4.00;;;8.20;59.10;;;;;;5062759;28;21336;-88
2022/01/22 06:15:12;;;;;;;5.87;4.93;;;8.20;59.30;;;;;;5053969;28;20506;-88
2022/01/22 06:17:59;;;;;;;12.13;4.00;;;8.10;59.30;;;;;;5053101;28;20793;-87
2022/01/22 06:20:26;;;;;;;5.13;4.40;;;8.00;59.80;;;;;;5059941;28;20457;-87
2022/01/22 06:22:55;;;;;;;5.63;4.20;;;8.00;60.20;;;;;;5057476;28;20545;-88
2022/01/22 06:25:22;;;;;;;5.00;4.03;;;8.20;59.80;;;;;;5043582;28;20455;-88
2022/01/22 06:27:50;;;;;;;9.70;4.60;;;8.10;59.70;;;;;;5063448;28;21013;-88
2022/01/22 06:30:17;;;;;;;5.50;4.37;;;7.90;60.10;;;;;;5044859;28;20459;-86
2022/01/22 06:32:49;;;;;;;6.67;3.77;;;8.00;60.10;;;;;;5057169;28;20471;-87
2022/01/22 06:35:16;;;;;;;4.83;3.90;;;8.10;60.00;;;;;;5057217;28;20516;-88
2022/01/22 06:37:44;;;;;;;4.47;4.03;;;8.10;59.70;;;;;;5041344;28;20847;-89
2022/01/22 06:43:44;;;;;;;5.60;4.20;;;8.40;59.00;;;;;;5070376;28;20483;-88
2022/01/22 06:46:19;;;;;;;7.70;5.10;;;8.30;59.30;;;;;;5053290;28;20467;-87
2022/01/22 06:49:18;;;;;;;7.87;5.23;;;8.20;59.50;;;;;;5071474;28;20468;-88
2022/01/22 06:52:24;;;;;;;8.27;5.50;;;8.40;59.50;;;;;;5056038;28;20980;-87
2022/01/22 06:54:54;;;;;;;6.30;4.80;;;8.50;59.00;;;;;;5054095;28;20710;-87
2022/01/22 06:57:22;;;;;;;6.00;4.53;;;8.50;58.90;;;;;;5050804;28;20549;-87
2022/01/22 06:59:49;;;;;;;7.10;4.60;;;8.60;58.80;;;;;;5062722;28;20453;-88
2022/01/22 07:02:19;;;;;;;6.77;4.47;;;8.50;58.30;;;;;;5068246;28;20485;-88
2022/01/22 07:04:46;;;;;;;6.30;4.33;;;8.40;59.10;;;;;;5059036;28;20461;-89
2022/01/22 07:07:35;;;;;;;5.87;4.10;;;8.40;59.10;;;;;;5077683;28;20464;-87
2022/01/22 07:10:02;;;;;;;6.77;4.60;;;8.50;58.80;;;;;;5059635;28;20590;-88
2022/01/22 07:12:32;;;;;;;5.67;4.47;;;8.40;58.60;;;;;;5065218;28;20480;-88
2022/01/22 07:14:59;;;;;;;8.43;4.73;;;8.60;58.80;;;;;;5065846;28;20556;-88
2022/01/22 07:17:27;;;;;;;7.10;4.77;;;8.60;58.40;;;;;;5060961;28;20466;-87
2022/01/22 07:20:05;;;;;;;4.90;4.40;;;8.70;58.40;;;;;;5056164;28;20456;-88
2022/01/22 07:22:38;;;;;;;9.20;4.23;;;8.80;58.30;;;;;;5065318;28;20484;-88
2022/01/22 07:25:18;;;;;;;4.73;3.80;;;8.60;58.20;;;;;;5048317;28;20455;-87
2022/01/22 07:27:47;;;;;;;8.40;4.50;;;8.40;58.90;;;;;;5058566;28;20529;-87
2022/01/22 07:30:15;;;;;;;6.20;4.60;;;8.30;59.30;;;;;;5057476;28;20475;-87
2022/01/22 07:32:44;;;;;;;6.97;4.50;;;8.30;59.30;;;;;;5060784;28;20529;-88
2022/01/22 07:35:12;;;;;;;5.47;4.97;;;8.20;59.50;;;;;;5058697;28;21328;-88
2022/01/22 07:37:40;;;;;;;5.20;4.57;;;8.00;60.20;;;;;;5057319;28;21841;-88
2022/01/22 07:40:16;;;;;;;7.90;4.33;;;8.10;60.00;;;;;;5063106;28;20458;-88
2022/01/22 07:42:54;;;;;;;9.83;5.10;;;8.20;60.00;;;;;;5060368;28;20536;-87
2022/01/22 07:45:40;;;;;;;7.47;4.80;;;8.40;59.40;;;;;;5074261;28;20455;-87
2022/01/22 07:48:11;;;;;;;7.83;4.67;;;8.20;59.50;;;;;;5060201;28;20503;-88
2022/01/22 07:50:57;;;;;;;6.87;5.00;;;8.10;59.90;;;;;;5072983;28;20562;-87
2022/01/22 07:53:24;;;;;;;8.10;4.50;;;8.40;59.60;;;;;;5074537;28;20539;-88
2022/01/22 07:55:53;;;;;;;9.00;6.07;;;8.50;59.20;;;;;;5059106;28;20440;-87
2022/01/22 07:58:21;;;;;;;9.67;5.73;;;8.50;58.80;;;;;;5058954;28;20531;-86
2022/01/22 08:00:48;;;;;;;65.47;33.90;;;8.70;58.50;;;;;;5054598;28;20496;-87
2022/01/22 08:03:16;;;;;;;18.37;13.87;;;8.90;58.30;;;;;;5051168;28;20486;-87
2022/01/22 08:06:02;;;;;;;7.37;5.47;;;8.90;58.00;;;;;;5069915;28;20477;-88
2022/01/22 08:09:02;;;;;;;11.00;6.10;;;8.80;58.00;;;;;;5039900;28;21279;-87
2022/01/22 08:12:05;;;;;;;11.10;5.87;;;8.90;58.20;;;;;;5060045;28;20509;-87
2022/01/22 08:14:33;;;;;;;8.20;5.43;;;8.90;58.00;;;;;;5070168;28;20929;-88
2022/01/22 08:17:00;;;;;;;8.43;5.37;;;9.00;57.80;;;;;;5054343;28;20517;-84
2022/01/22 08:19:36;;;;;;;6.80;4.40;;;9.10;58.00;;;;;;5054937;28;20866;-84
2022/01/22 08:22:10;;;;;;;7.40;5.00;;;9.30;57.70;;;;;;5055474;28;20448;-86
2022/01/22 08:25:10;;;;;;;7.30;5.20;;;9.20;57.50;;;;;;5023730;28;20440;-87
2022/01/22 08:27:42;;;;;;;10.57;5.50;;;9.00;57.70;;;;;;5056519;28;20477;-87
2022/01/22 08:30:14;;;;;;;6.40;5.57;;;9.10;57.90;;;;;;5056637;28;20455;-87
2022/01/22 08:33:08;;;;;;;10.53;5.90;;;9.00;57.80;;;;;;5051988;28;20490;-87
2022/01/22 08:35:53;;;;;;;8.80;4.27;;;9.10;57.90;;;;;;5072325;28;20460;-87
2022/01/22 08:38:22;;;;;;;6.50;4.67;;;9.00;57.70;;;;;;5055434;28;20535;-86
2022/01/22 08:40:50;;;;;;;6.03;5.00;;;9.00;58.20;;;;;;5070831;28;20457;-87
2022/01/22 08:43:17;;;;;;;7.63;4.97;;;9.00;58.30;;;;;;5052322;28;21026;-84
2022/01/22 08:45:49;;;;;;;10.20;4.80;;;9.00;58.40;;;;;;5060824;28;20559;-86
2022/01/22 08:48:17;;;;;;;5.33;4.10;;;9.20;58.30;;;;;;5054294;28;20516;-86
2022/01/22 08:50:44;;;;;;;7.20;3.90;;;9.20;58.20;;;;;;5058497;28;20459;-87
2022/01/22 08:53:11;;;;;;;8.97;8.00;;;9.20;57.90;;;;;;5055077;28;21035;-87
2022/01/22 08:55:39;;;;;;;10.97;7.00;;;9.20;58.00;;;;;;5052964;28;20510;-87
2022/01/22 08:58:08;;;;;;;7.90;5.60;;;9.30;58.20;;;;;;5055067;28;20908;-88
2022/01/22 09:00:50;;;;;;;7.40;6.33;;;9.00;58.30;;;;;;5054820;28;20503;-87
2022/01/22 09:03:28;;;;;;;11.27;6.07;;;8.90;58.80;;;;;;5039783;28;20483;-88
2022/01/22 09:06:17;;;;;;;10.27;6.53;;;9.00;59.00;;;;;;5044829;28;21151;-88
2022/01/22 09:08:51;;;;;;;9.67;4.90;;;8.90;58.80;;;;;;5054234;28;20989;-86
2022/01/22 09:11:21;;;;;;;6.90;4.60;;;9.00;58.70;;;;;;5053359;28;20464;-87
2022/01/22 09:14:11;;;;;;;10.40;6.90;;;9.20;58.60;;;;;;5055707;28;20479;-87
2022/01/22 09:16:47;;;;;;;9.87;6.80;;;9.30;58.30;;;;;;5058036;28;20554;-87
2022/01/22 09:19:14;;;;;;;14.90;9.87;;;9.20;58.20;;;;;;5051164;28;20468;-87
2022/01/22 09:21:45;;;;;;;19.17;8.63;;;9.30;58.10;;;;;;5056554;28;20471;-88
2022/01/22 09:24:15;;;;;;;8.60;6.10;;;9.30;58.00;;;;;;5036908;28;21000;-86
2022/01/22 09:26:44;;;;;;;12.83;7.70;;;9.30;58.00;;;;;;5062655;28;20457;-87
2022/01/22 09:29:11;;;;;;;12.50;7.30;;;9.40;58.00;;;;;;5052241;28;20482;-86
2022/01/22 09:31:39;;;;;;;8.60;5.90;;;9.40;57.90;;;;;;5058032;28;20468;-86
2022/01/22 09:34:11;;;;;;;14.30;7.70;;;9.30;58.00;;;;;;5056816;28;20474;-86
2022/01/22 09:36:57;;;;;;;11.63;7.50;;;9.40;58.10;;;;;;5073440;28;20824;-85
2022/01/22 09:39:43;;;;;;;10.03;6.80;;;9.30;58.00;;;;;;5057651;28;20509;-86
2022/01/22 09:42:33;;;;;;;7.43;6.00;;;9.40;58.30;;;;;;5034311;28;20520;-85
2022/01/22 09:45:21;;;;;;;8.60;5.77;;;9.40;58.10;;;;;;5041931;28;20467;-86
2022/01/22 09:48:02;;;;;;;7.83;6.30;;;9.50;57.60;;;;;;5071575;28;20495;-88
2022/01/22 09:50:38;;;;;;;13.10;7.53;;;9.60;57.80;;;;;;5035807;28;20551;-86
2022/01/22 09:53:41;;;;;;;22.87;10.83;;;9.60;57.70;;;;;;5001801;28;20487;-89
2022/01/22 09:56:31;;;;;;;12.17;6.40;;;9.80;57.60;;;;;;5068530;28;20459;-88
2022/01/22 09:59:14;;;;;;;11.13;7.20;;;9.80;57.40;;;;;;5055375;28;20451;-88
2022/01/22 10:02:11;;;;;;;15.67;8.60;;;9.80;57.50;;;;;;5056124;28;20467;-88
2022/01/22 10:04:40;;;;;;;16.80;9.27;;;9.60;57.50;;;;;;5052067;28;20498;-88
2022/01/22 10:07:27;;;;;;;20.13;12.07;;;9.60;57.90;;;;;;5071568;28;20452;-88
2022/01/22 10:10:06;;;;;;;14.53;8.40;;;9.60;58.00;;;;;;5070969;28;20470;-88
2022/01/22 10:12:44;;;;;;;12.50;8.47;;;9.60;58.00;;;;;;5074314;28;20498;-88
2022/01/22 10:15:32;;;;;;;16.50;8.23;;;9.70;57.60;;;;;;5072191;28;20451;-88
2022/01/22 10:18:00;;;;;;;19.03;9.80;;;9.70;57.50;;;;;;5042186;28;20459;-89
2022/01/22 10:20:33;;;;;;;19.70;10.27;;;9.60;57.80;;;;;;5073549;28;20449;-88
2022/01/22 10:23:03;;;;;;;17.03;8.57;;;9.60;58.00;;;;;;5070339;28;20515;-88
2022/01/22 10:25:35;;;;;;;33.00;14.53;;;9.60;57.80;;;;;;5051824;28;20444;-88
2022/01/22 10:28:05;;;;;;;45.87;20.50;;;9.40;58.20;;;;;;5073177;28;20455;-88
2022/01/22 10:30:39;;;;;;;24.37;10.67;;;9.50;58.40;;;;;;5072133;28;20472;-88
2022/01/22 10:33:26;;;;;;;27.13;11.30;;;9.50;58.40;;;;;;5073462;28;20472;-88
2022/01/22 10:36:15;;;;;;;24.63;12.10;;;9.60;58.30;;;;;;5055863;28;20836;-89
2022/01/22 10:39:08;;;;;;;12.23;7.50;;;9.80;58.20;;;;;;5024860;28;20480;-87
2022/01/22 10:41:38;;;;;;;14.50;7.43;;;9.80;57.90;;;;;;5058429;28;20443;-88
2022/01/22 10:44:09;;;;;;;11.03;7.97;;;9.80;58.10;;;;;;5078596;28;20479;-88
2022/01/22 10:46:46;;;;;;;17.73;10.83;;;9.40;58.60;;;;;;5073271;28;20526;-85
2022/01/22 10:49:16;;;;;;;14.87;8.10;;;9.40;59.00;;;;;;5074832;28;20567;-86
2022/01/22 10:51:49;;;;;;;9.60;7.70;;;9.40;59.10;;;;;;5075429;28;20468;-86
2022/01/22 10:54:20;;;;;;;14.63;9.87;;;9.30;59.50;;;;;;5074354;28;20985;-86
2022/01/22 10:56:48;;;;;;;10.20;7.30;;;9.10;59.50;;;;;;5074309;28;20552;-87
2022/01/22 10:59:17;;;;;;;14.63;8.40;;;9.30;59.70;;;;;;5075251;28;20461;-86
2022/01/22 11:01:50;;;;;;;9.90;6.50;;;9.10;59.70;;;;;;5075121;28;20456;-86
2022/01/22 11:04:19;;;;;;;14.17;8.70;;;9.10;60.10;;;;;;5073169;28;20579;-86
2022/01/22 11:06:50;;;;;;;18.00;8.47;;;9.20;60.30;;;;;;5074003;28;20542;-86
2022/01/22 11:09:19;;;;;;;19.03;10.07;;;9.30;59.90;;;;;;5074187;28;20692;-87
2022/01/22 11:11:46;;;;;;;11.47;7.47;;;9.30;59.80;;;;;;5071858;28;20601;-86
2022/01/22 11:14:14;;;;;;;14.50;9.27;;;9.30;60.00;;;;;;5075774;28;21039;-87
2022/01/22 11:16:44;;;;;;;20.50;12.33;;;9.50;59.80;;;;;;5073358;28;20838;-86
2022/01/22 11:19:14;;;;;;;14.23;8.93;;;9.60;59.50;;;;;;5074954;28;20538;-86
2022/01/22 11:21:46;;;;;;;13.00;7.93;;;9.60;59.60;;;;;;5076672;28;20555;-87
2022/01/22 11:24:13;;;;;;;26.43;13.10;;;9.50;59.20;;;;;;5073885;28;20506;-86
2022/01/22 11:26:45;;;;;;;15.03;9.33;;;9.30;59.50;;;;;;5073203;28;20463;-86
2022/01/22 11:29:15;;;;;;;9.90;7.33;;;9.30;60.20;;;;;;5073849;28;20649;-87
2022/01/22 11:31:45;;;;;;;8.70;7.43;;;9.30;60.00;;;;;;5073743;28;20449;-86
2022/01/22 11:34:15;;;;;;;11.77;7.40;;;9.30;59.90;;;;;;5059525;28;20510;-87
2022/01/22 11:36:48;;;;;;;9.50;6.90;;;9.60;59.80;;;;;;5074478;28;20951;-86
2022/01/22 11:39:21;;;;;;;8.97;7.03;;;9.70;59.50;;;;;;5073773;28;20862;-86
2022/01/22 11:41:54;;;;;;;8.30;6.80;;;9.70;59.90;;;;;;5072563;28;20464;-86
2022/01/22 11:44:34;;;;;;;13.20;7.77;;;9.40;59.60;;;;;;5073620;28;20487;-86
2022/01/22 11:47:10;;;;;;;11.70;7.50;;;9.40;59.90;;;;;;5072804;28;20459;-85
2022/01/22 11:49:38;;;;;;;10.57;7.30;;;9.30;59.80;;;;;;5053280;28;20574;-87
2022/01/22 11:52:28;;;;;;;10.03;7.90;;;9.30;60.20;;;;;;5074946;28;20751;-87
2022/01/22 11:54:59;;;;;;;11.60;7.57;;;9.50;60.10;;;;;;5074974;28;20551;-87
2022/01/22 11:57:29;;;;;;;11.70;8.87;;;9.50;59.60;;;;;;5076381;28;20459;-87
2022/01/22 12:00:20;;;;;;;12.40;9.07;;;9.60;59.70;;;;;;5071704;28;20539;-88
2022/01/22 12:03:19;;;;;;;15.27;10.43;;;9.70;59.30;;;;;;5073114;28;20475;-87
2022/01/22 12:06:10;;;;;;;12.77;8.40;;;9.50;59.50;;;;;;5071277;28;20464;-86
2022/01/22 12:09:05;;;;;;;12.03;8.43;;;9.50;59.70;;;;;;5073734;28;21125;-86
2022/01/22 12:14:53;;;;;;;11.33;7.20;;;9.30;59.80;;;;;;5073055;28;20460;-86
2022/01/22 12:17:41;;;;;;;8.83;6.43;;;9.30;60.20;;;;;;5072274;28;20478;-85
2022/01/22 12:20:40;;;;;;;12.70;7.50;;;9.40;59.90;;;;;;5077690;28;20943;-87
2022/01/22 12:23:09;;;;;;;10.97;6.90;;;9.40;60.30;;;;;;5055814;28;20873;-89
2022/01/22 12:25:50;;;;;;;9.13;7.17;;;9.60;63.30;;;;;;5045838;28;20543;-86
2022/01/22 12:28:36;;;;;;;10.40;8.37;;;9.80;60.90;;;;;;5056184;28;20451;-88
2022/01/22 12:31:06;;;;;;;9.07;6.20;;;10.00;59.10;;;;;;5060885;28;20479;-89
2022/01/22 12:33:48;;;;;;;9.70;6.50;;;10.20;59.40;;;;;;5075408;28;20587;-89
2022/01/22 12:36:23;;;;;;;9.20;6.30;;;10.30;58.50;;;;;;5052708;28;20451;-89
2022/01/22 12:39:02;;;;;;;10.40;6.53;;;10.30;57.30;;;;;;5065053;28;20505;-89
2022/01/22 12:41:32;;;;;;;13.93;8.70;;;10.10;57.30;;;;;;5082303;28;20447;-89
2022/01/22 12:44:07;;;;;;;12.50;8.97;;;10.20;57.40;;;;;;5049630;28;20473;-90
2022/01/22 12:46:37;;;;;;;10.40;7.10;;;10.20;57.40;;;;;;5063837;28;20512;-89
2022/01/22 12:49:06;;;;;;;13.20;6.50;;;10.30;57.20;;;;;;5048041;28;20534;-92
2022/01/22 12:51:34;;;;;;;10.27;7.80;;;10.20;57.30;;;;;;5043595;28;20486;-89
2022/01/22 12:54:01;;;;;;;12.67;7.67;;;10.10;57.30;;;;;;5065115;28;20515;-90
2022/01/22 12:56:51;;;;;;;11.00;8.13;;;10.10;57.30;;;;;;5036427;28;20914;-90
2022/01/22 12:59:18;;;;;;;10.63;6.70;;;10.20;57.40;;;;;;5057205;28;20452;-91
2022/01/22 13:01:51;;;;;;;10.03;7.07;;;10.00;57.50;;;;;;5086610;28;20452;-90
2022/01/22 13:04:21;;;;;;;10.63;6.40;;;9.90;58.70;;;;;;5052404;28;20475;-90
2022/01/22 13:07:12;;;;;;;12.47;8.53;;;10.00;58.00;;;;;;5058716;28;20977;-90
2022/01/22 13:10:06;;;;;;;10.57;7.10;;;10.00;57.90;;;;;;5069312;28;20476;-89
2022/01/22 13:12:34;;;;;;;11.33;6.63;;;10.00;58.00;;;;;;5083768;28;20464;-89
2022/01/22 13:15:01;;;;;;;15.70;8.57;;;9.90;58.60;;;;;;5065875;28;20482;-90
2022/01/22 13:17:31;;;;;;;10.60;8.13;;;9.90;58.90;;;;;;5047242;28;20464;-89
2022/01/22 13:19:59;;;;;;;10.20;6.90;;;9.90;59.00;;;;;;5060712;28;20536;-87
2022/01/22 13:22:33;;;;;;;10.57;6.53;;;9.90;59.00;;;;;;5076856;28;20475;-89
2022/01/22 13:25:10;;;;;;;11.93;7.53;;;9.90;58.90;;;;;;5047925;28;20448;-90
2022/01/22 13:27:38;;;;;;;10.60;6.80;;;9.80;58.70;;;;;;5041787;28;20452;-89
2022/01/22 13:30:08;;;;;;;11.40;7.07;;;9.80;59.00;;;;;;5032210;28;20464;-89
2022/01/22 13:32:49;;;;;;;7.60;6.20;;;9.80;59.80;;;;;;5052642;28;20471;-90
2022/01/22 13:35:28;;;;;;;10.73;7.67;;;9.90;58.90;;;;;;5065894;28;20555;-90
2022/01/22 13:41:03;;;;;;;8.73;6.10;;;10.00;57.80;;;;;;5047527;28;20547;-90
2022/01/22 13:49:13;;;;;;;7.50;6.27;;;10.10;57.40;;;;;;5030054;28;20439;-90
2022/01/22 13:51:43;;;;;;;9.43;5.80;;;10.00;57.70;;;;;;5041421;28;20460;-89
2022/01/22 13:54:11;;;;;;;9.90;6.30;;;10.10;57.70;;;;;;5035939;28;20472;-89
2022/01/22 13:56:52;;;;;;;10.60;7.07;;;10.00;57.90;;;;;;5060816;28;20474;-90
2022/01/22 13:59:21;;;;;;;9.07;6.80;;;9.80;58.80;;;;;;5056590;28;20474;-89
2022/01/22 14:02:05;;;;;;;10.27;6.07;;;10.00;58.00;;;;;;5065984;28;20490;-89
2022/01/22 14:04:46;;;;;;;11.57;6.67;;;10.20;57.70;;;;;;5079641;28;20449;-89
2022/01/22 14:07:16;;;;;;;10.43;6.30;;;10.20;57.20;;;;;;5054289;28;20447;-90
2022/01/22 14:09:56;;;;;;;10.37;6.93;;;10.30;57.10;;;;;;5075770;28;20467;-90
2022/01/22 14:12:26;;;;;;;11.17;5.67;;;10.30;57.10;;;;;;5056469;28;20462;-89
2022/01/22 14:15:06;;;;;;;8.07;5.07;;;10.20;57.40;;;;;;5074382;28;20479;-89
2022/01/22 14:17:39;;;;;;;8.47;6.60;;;10.20;57.10;;;;;;5077798;28;20448;-89
2022/01/22 14:20:10;;;;;;;9.67;5.97;;;10.30;57.80;;;;;;5060248;28;20464;-92
2022/01/22 14:23:04;;;;;;;7.27;5.10;;;10.40;56.80;;;;;;5051697;28;20518;-92
2022/01/22 14:25:32;;;;;;;6.70;5.40;;;10.30;56.50;;;;;;5056751;28;20484;-91
2022/01/22 14:28:03;;;;;;;9.50;7.67;;;10.20;56.80;;;;;;5076408;28;20547;-89
2022/01/22 14:30:35;;;;;;;8.97;7.20;;;10.20;56.90;;;;;;5073434;28;20472;-90
2022/01/22 14:33:03;;;;;;;9.50;5.00;;;10.30;56.80;;;;;;5038120;28;20507;-89
2022/01/22 14:35:32;;;;;;;8.23;5.63;;;10.20;56.30;;;;;;5056423;28;20488;-91
2022/01/22 14:38:21;;;;;;;8.70;6.33;;;10.10;56.30;;;;;;5065070;28;20514;-88